Time;durP1;ratioP1;P1;durP2;ratioP2;P2;SDS_P1;SDS_P2;PMS_P1;PMS_P2;Temp;Humidity;BMP_temperature;BMP_pressure;BME280_temperature;BME280_humidity;BME280_pressure;Samples;Min_cycle;Max_cycle;Signal;HPM_P1;HPM_P2
2024/01/20 00:00:24;;;;;;;150.63;55.22;;;;;;;-1.33;100.00;102532.56;5084625;27;20032;-73
2024/01/20 00:02:50;;;;;;;162.35;55.60;;;;;;;-1.31;100.00;102530.84;5077467;27;20027;-73
2024/01/20 00:05:15;;;;;;;149.90;53.50;;;;;;;-1.32;100.00;102536.94;5075713;27;20040;-73
2024/01/20 00:07:41;;;;;;;158.95;54.88;;;;;;;-1.33;100.00;102541.28;5089984;27;20042;-73
2024/01/20 00:10:10;;;;;;;141.10;51.28;;;;;;;-1.32;100.00;102540.44;5071969;27;20036;-73
2024/01/20 00:12:40;;;;;;;153.88;55.55;;;;;;;-1.37;100.00;102534.25;5097270;27;20036;-73
2024/01/20 00:15:07;;;;;;;169.00;54.35;;;;;;;-1.32;100.00;102535.19;5090609;27;20036;-73
2024/01/20 00:17:33;;;;;;;147.65;53.22;;;;;;;-1.33;100.00;102527.34;5068164;27;20117;-73
2024/01/20 00:19:58;;;;;;;146.85;50.95;;;;;;;-1.34;100.00;102533.44;5076445;27;20101;-73
2024/01/20 00:22:24;;;;;;;160.88;53.50;;;;;;;-1.31;100.00;102534.38;5098806;27;20028;-74
2024/01/20 00:24:49;;;;;;;151.32;50.38;;;;;;;-1.34;100.00;102533.44;5073548;27;20032;-73
2024/01/20 00:27:15;;;;;;;144.80;51.58;;;;;;;-1.28;100.00;102535.25;5082685;27;20044;-74
2024/01/20 00:29:40;;;;;;;159.57;52.88;;;;;;;-1.33;100.00;102533.44;5089337;27;20044;-74
2024/01/20 00:32:06;;;;;;;147.18;51.17;;;;;;;-1.33;100.00;102535.19;5094107;27;20137;-74
2024/01/20 00:34:31;;;;;;;146.68;51.55;;;;;;;-1.35;100.00;102545.63;5098149;27;20024;-74
2024/01/20 00:36:58;;;;;;;139.15;49.40;;;;;;;-1.36;100.00;102553.44;5094336;27;20044;-75
2024/01/20 00:39:23;;;;;;;145.45;48.47;;;;;;;-1.34;100.00;102542.16;5092010;27;20886;-74
2024/01/20 00:41:48;;;;;;;158.30;50.63;;;;;;;-1.35;100.00;102543.03;5090793;27;20055;-75
2024/01/20 00:44:14;;;;;;;158.00;51.17;;;;;;;-1.32;100.00;102545.66;5075802;27;20532;-75
2024/01/20 00:46:39;;;;;;;148.82;49.60;;;;;;;-1.26;100.00;102549.22;5088959;27;20033;-74
2024/01/20 00:49:05;;;;;;;154.63;53.22;;;;;;;-1.34;100.00;102555.25;5088465;27;20070;-75
2024/01/20 00:51:30;;;;;;;142.25;50.70;;;;;;;-1.35;100.00;102550.00;5094392;27;20467;-75
2024/01/20 00:53:56;;;;;;;150.35;52.20;;;;;;;-1.36;100.00;102536.00;5087199;27;20701;-75
2024/01/20 00:56:21;;;;;;;150.57;49.30;;;;;;;-1.27;100.00;102540.50;5087814;27;20025;-75
2024/01/20 00:58:47;;;;;;;157.00;51.28;;;;;;;-1.31;100.00;102544.81;5098812;27;20774;-74
2024/01/20 01:01:12;;;;;;;132.98;47.38;;;;;;;-1.27;100.00;102537.00;5077903;27;20138;-75
2024/01/20 01:03:38;;;;;;;152.10;50.80;;;;;;;-1.28;100.00;102530.00;5092707;27;20044;-75
2024/01/20 01:06:04;;;;;;;142.15;47.33;;;;;;;-1.28;100.00;102533.50;5081096;27;20036;-74
2024/01/20 01:08:29;;;;;;;143.77;49.88;;;;;;;-1.25;100.00;102536.19;5096039;27;20089;-75
2024/01/20 01:10:55;;;;;;;146.23;52.13;;;;;;;-1.34;100.00;102531.69;5080428;27;20178;-74
2024/01/20 01:13:21;;;;;;;146.00;49.88;;;;;;;-1.36;100.00;102533.38;5095047;27;20598;-75
2024/01/20 01:15:46;;;;;;;150.65;50.10;;;;;;;-1.38;100.00;102536.88;5075181;27;20119;-74
2024/01/20 01:18:12;;;;;;;153.05;51.47;;;;;;;-1.37;100.00;102534.25;5095154;27;20473;-75
2024/01/20 01:20:37;;;;;;;147.52;49.92;;;;;;;-1.32;100.00;102544.78;5078215;27;20043;-74
2024/01/20 01:23:03;;;;;;;141.30;48.80;;;;;;;-1.41;100.00;102547.28;5093557;27;20040;-74
2024/01/20 01:25:29;;;;;;;142.43;48.70;;;;;;;-1.38;100.00;102542.97;5088604;27;20032;-75
2024/01/20 01:27:54;;;;;;;145.68;47.80;;;;;;;-1.38;100.00;102553.44;5078529;27;20398;-74
2024/01/20 01:30:20;;;;;;;146.40;48.63;;;;;;;-1.39;100.00;102554.31;5096656;27;20036;-74
2024/01/20 01:32:45;;;;;;;162.05;51.15;;;;;;;-1.39;100.00;102554.31;5101239;27;20165;-75
2024/01/20 01:35:11;;;;;;;149.73;47.50;;;;;;;-1.43;100.00;102557.72;5100159;27;20039;-74
2024/01/20 01:37:36;;;;;;;144.50;46.40;;;;;;;-1.46;100.00;102556.78;5077576;28;20044;-74
2024/01/20 01:40:02;;;;;;;147.07;49.78;;;;;;;-1.49;100.00;102552.41;5100582;27;20597;-73
2024/01/20 01:42:27;;;;;;;161.52;49.47;;;;;;;-1.40;100.00;102562.13;5100332;27;20052;-74
2024/01/20 01:44:53;;;;;;;140.30;47.78;;;;;;;-1.47;100.00;102571.63;5084237;27;20347;-75
2024/01/20 01:47:19;;;;;;;148.15;48.65;;;;;;;-1.40;100.00;102572.59;5093997;27;20028;-75
2024/01/20 01:49:45;;;;;;;136.43;47.00;;;;;;;-1.40;100.00;102576.09;5097978;27;20035;-74
2024/01/20 01:52:13;;;;;;;156.35;48.40;;;;;;;-1.41;100.00;102576.06;5096880;27;20088;-74
2024/01/20 01:54:39;;;;;;;142.45;46.75;;;;;;;-1.46;100.00;102573.38;5092685;27;20036;-74
2024/01/20 01:57:05;;;;;;;150.75;49.78;;;;;;;-1.40;100.00;102577.84;5105574;27;20062;-75
2024/01/20 01:59:33;;;;;;;152.15;46.90;;;;;;;-1.43;100.00;102567.31;5082247;27;20036;-75
2024/01/20 02:01:58;;;;;;;142.95;48.33;;;;;;;-1.42;100.00;102580.41;5101370;27;20055;-74
2024/01/20 02:04:25;;;;;;;140.13;46.15;;;;;;;-1.41;100.00;102574.31;5094090;27;20551;-75
2024/01/20 02:06:50;;;;;;;158.70;46.47;;;;;;;-1.45;100.00;102575.16;5093369;27;20087;-75
2024/01/20 02:09:17;;;;;;;153.63;49.13;;;;;;;-1.45;100.00;102579.50;5096844;27;20036;-75
2024/01/20 02:11:43;;;;;;;156.73;47.90;;;;;;;-1.43;100.00;102578.66;5096758;27;20036;-74
2024/01/20 02:14:10;;;;;;;154.93;49.75;;;;;;;-1.49;100.00;102585.56;5088045;27;20032;-74
2024/01/20 02:16:35;;;;;;;163.18;50.17;;;;;;;-1.50;100.00;102587.28;5088288;27;20036;-74
2024/01/20 02:19:05;;;;;;;141.55;46.15;;;;;;;-1.47;100.00;102594.28;5099714;27;20028;-74
2024/01/20 02:21:30;;;;;;;138.52;45.78;;;;;;;-1.45;100.00;102597.81;5091408;27;20028;-74
2024/01/20 02:23:58;;;;;;;133.00;44.05;;;;;;;-1.44;100.00;102604.81;5088184;27;20712;-74
2024/01/20 02:26:26;;;;;;;146.50;46.55;;;;;;;-1.37;100.00;102602.28;5066165;27;20044;-74
2024/01/20 02:28:51;;;;;;;138.55;45.85;;;;;;;-1.61;100.00;102599.31;5101209;27;20032;-76
2024/01/20 02:31:17;;;;;;;138.90;47.42;;;;;;;-1.48;100.00;102597.75;5103150;27;20036;-74
2024/01/20 02:33:42;;;;;;;142.65;45.75;;;;;;;-1.51;100.00;102603.81;5097241;27;20035;-75
2024/01/20 02:36:08;;;;;;;150.45;44.13;;;;;;;-1.47;100.00;102607.38;5091750;27;20039;-74
2024/01/20 02:38:33;;;;;;;148.68;45.97;;;;;;;-1.43;100.00;102604.81;5085362;27;20032;-74
2024/01/20 02:40:59;;;;;;;140.98;43.72;;;;;;;-1.42;100.00;102596.09;5089362;27;20114;-75
2024/01/20 02:43:24;;;;;;;135.27;46.33;;;;;;;-1.38;100.00;102604.88;5097353;27;20082;-75
2024/01/20 02:45:50;;;;;;;126.85;44.00;;;;;;;-1.41;100.00;102596.97;5098127;27;20043;-74
2024/01/20 02:48:15;;;;;;;130.95;43.47;;;;;;;-1.41;100.00;102599.59;5083738;27;20040;-74
2024/01/20 02:50:41;;;;;;;139.52;42.78;;;;;;;-1.43;100.00;102598.72;5092759;27;20058;-74
2024/01/20 02:53:06;;;;;;;127.53;42.55;;;;;;;-1.58;100.00;102589.78;5090687;27;20789;-75
2024/01/20 02:55:32;;;;;;;130.60;44.08;;;;;;;-1.47;100.00;102599.50;5099824;27;20039;-74
2024/01/20 02:57:58;;;;;;;127.40;42.13;;;;;;;-1.43;100.00;102612.66;5097498;27;20040;-75
2024/01/20 03:00:23;;;;;;;138.50;42.97;;;;;;;-1.48;100.00;102603.00;5092908;27;20393;-75
2024/01/20 03:02:49;;;;;;;141.50;43.20;;;;;;;-1.45;100.00;102619.63;5088421;27;20135;-74
2024/01/20 03:05:15;;;;;;;134.05;43.60;;;;;;;-1.45;100.00;102616.13;5088236;27;20477;-74
2024/01/20 03:07:40;;;;;;;122.82;40.80;;;;;;;-1.47;100.00;102613.47;5081872;27;20027;-75
2024/01/20 03:10:06;;;;;;;138.13;43.30;;;;;;;-1.48;100.00;102606.50;5091390;27;20916;-74
2024/01/20 03:12:32;;;;;;;141.75;43.90;;;;;;;-1.43;100.00;102609.16;5075306;28;20110;-74
2024/01/20 03:14:58;;;;;;;115.38;40.03;;;;;;;-1.45;100.00;102603.06;5097994;27;20094;-73
2024/01/20 03:17:23;;;;;;;130.52;42.78;;;;;;;-1.48;100.00;102609.09;5073739;28;20044;-75
2024/01/20 03:19:49;;;;;;;127.40;44.13;;;;;;;-1.42;100.00;102611.81;5080896;27;20585;-75
2024/01/20 03:22:14;;;;;;;130.32;42.33;;;;;;;-1.44;100.00;102612.66;5094708;27;20027;-75
2024/01/20 03:24:40;;;;;;;124.85;42.10;;;;;;;-1.48;100.00;102609.09;5096072;27;20036;-73
2024/01/20 03:27:05;;;;;;;130.48;40.70;;;;;;;-1.46;100.00;102610.00;5098842;27;20034;-74
2024/01/20 03:29:31;;;;;;;132.80;40.53;;;;;;;-1.43;100.00;102614.41;5072247;27;20036;-74
2024/01/20 03:31:57;;;;;;;138.63;42.58;;;;;;;-1.45;100.00;102610.91;5093259;27;20788;-74
2024/01/20 03:34:22;;;;;;;137.75;43.10;;;;;;;-1.43;100.00;102607.44;5099805;27;20083;-74
2024/01/20 03:36:48;;;;;;;132.88;39.72;;;;;;;-1.46;100.00;102614.34;5095962;27;20040;-74
2024/01/20 03:39:13;;;;;;;129.60;41.47;;;;;;;-1.49;100.00;102615.19;5089678;27;20740;-75
2024/01/20 03:41:39;;;;;;;117.03;40.97;;;;;;;-1.47;100.00;102623.06;5100805;27;20040;-75
2024/01/20 03:44:04;;;;;;;130.20;41.58;;;;;;;-1.49;100.00;102627.41;5099091;27;20032;-74
2024/01/20 03:46:30;;;;;;;129.55;39.22;;;;;;;-1.50;100.00;102625.66;5096879;27;20145;-73
2024/01/20 03:48:55;;;;;;;129.27;41.40;;;;;;;-1.51;100.00;102623.88;5085328;27;20665;-75
2024/01/20 03:51:26;;;;;;;135.23;41.85;;;;;;;-1.48;100.00;102622.19;5096074;27;20477;-75
2024/01/20 03:53:52;;;;;;;130.25;40.75;;;;;;;-1.50;100.00;102628.25;5087361;27;20354;-74
2024/01/20 03:56:18;;;;;;;133.68;42.85;;;;;;;-1.54;100.00;102632.56;5090024;27;20583;-75
2024/01/20 03:58:43;;;;;;;133.63;44.88;;;;;;;-1.80;100.00;102634.75;5087265;27;21031;-74
2024/01/20 04:01:09;;;;;;;128.73;42.67;;;;;;;-1.58;100.00;102634.25;5088491;27;20146;-74
2024/01/20 04:03:34;;;;;;;130.70;40.80;;;;;;;-1.61;100.00;102647.28;5089998;27;20119;-74
2024/01/20 04:06:00;;;;;;;131.02;41.28;;;;;;;-1.62;100.00;102648.13;5091565;27;20143;-73
2024/01/20 04:08:25;;;;;;;122.40;41.00;;;;;;;-1.64;100.00;102649.84;5095124;27;20469;-74
2024/01/20 04:10:51;;;;;;;129.65;42.30;;;;;;;-1.61;100.00;102649.91;5073713;27;20036;-74
2024/01/20 04:13:16;;;;;;;129.93;41.10;;;;;;;-1.63;100.00;102651.59;5076822;27;20146;-74
2024/01/20 04:15:43;;;;;;;133.43;43.15;;;;;;;-1.55;100.00;102645.63;5071946;28;20135;-75
2024/01/20 04:18:09;;;;;;;123.90;43.00;;;;;;;-1.61;100.00;102636.81;5070356;28;20032;-74
2024/01/20 04:20:34;;;;;;;136.00;43.08;;;;;;;-1.64;100.00;102635.88;5066133;27;20055;-73
2024/01/20 04:23:00;;;;;;;131.07;42.28;;;;;;;-1.64;100.00;102639.38;5094110;27;20116;-74
2024/01/20 04:25:25;;;;;;;121.57;41.17;;;;;;;-1.73;100.00;102628.75;5093283;27;20092;-73
2024/01/20 04:27:51;;;;;;;122.82;40.50;;;;;;;-1.70;100.00;102641.03;5093964;27;20154;-73
2024/01/20 04:30:16;;;;;;;129.30;41.55;;;;;;;-1.59;100.00;102634.22;5092668;27;20586;-75
2024/01/20 04:32:42;;;;;;;129.55;40.70;;;;;;;-1.60;100.00;102645.56;5091975;27;20158;-74
2024/01/20 04:35:08;;;;;;;137.57;41.05;;;;;;;-1.64;100.00;102634.16;5066326;28;20032;-73
2024/01/20 04:37:33;;;;;;;124.13;39.92;;;;;;;-1.65;100.00;102640.25;5089322;27;20175;-74
2024/01/20 04:40:00;;;;;;;124.75;39.25;;;;;;;-1.68;100.00;102644.53;5075631;27;20075;-73
2024/01/20 04:42:25;;;;;;;125.55;41.08;;;;;;;-1.69;100.00;102646.28;5076035;27;20522;-73
2024/01/20 04:44:51;;;;;;;124.85;40.80;;;;;;;-1.65;100.00;102645.47;5098787;27;20028;-74
2024/01/20 04:47:16;;;;;;;130.38;41.28;;;;;;;-1.68;100.00;102648.03;5075406;27;20075;-73
2024/01/20 04:49:42;;;;;;;119.20;42.30;;;;;;;-1.68;100.00;102644.53;5078976;27;20032;-75
2024/01/20 04:52:07;;;;;;;138.57;41.45;;;;;;;-1.68;100.00;102647.16;5095715;27;20039;-74
2024/01/20 04:54:32;;;;;;;124.65;38.25;;;;;;;-1.72;100.00;102654.06;5092717;27;20096;-74
2024/01/20 04:56:58;;;;;;;130.10;39.70;;;;;;;-1.84;100.00;102662.59;5087373;27;20047;-74
2024/01/20 04:59:24;;;;;;;133.68;40.35;;;;;;;-1.80;100.00;102655.69;5099253;27;20696;-74
2024/01/20 05:01:52;;;;;;;123.00;38.38;;;;;;;-1.92;100.00;102668.53;5085420;27;20036;-74
2024/01/20 05:04:18;;;;;;;128.43;40.60;;;;;;;-1.87;100.00;102662.53;5092269;27;20028;-73
2024/01/20 05:06:45;;;;;;;127.25;38.05;;;;;;;-1.81;100.00;102666.97;5101660;27;20035;-74
2024/01/20 05:09:14;;;;;;;118.50;39.05;;;;;;;-1.77;100.00;102679.25;5097399;27;20113;-73
2024/01/20 05:11:39;;;;;;;127.53;40.67;;;;;;;-1.78;100.00;102671.38;5090311;27;20093;-73
2024/01/20 05:14:06;;;;;;;127.07;39.63;;;;;;;-1.86;100.00;102671.25;5083758;27;20036;-74
2024/01/20 05:16:32;;;;;;;128.65;42.03;;;;;;;-1.87;100.00;102675.59;5088195;27;20062;-73
2024/01/20 05:18:57;;;;;;;120.68;41.70;;;;;;;-1.89;100.00;102684.28;5079942;27;20128;-74
2024/01/20 05:21:22;;;;;;;120.57;40.28;;;;;;;-1.93;100.00;102691.16;5098203;27;20046;-74
2024/01/20 05:23:49;;;;;;;121.20;40.30;;;;;;;-1.85;100.00;102692.22;5094108;27;20031;-74
2024/01/20 05:26:14;;;;;;;137.07;40.65;;;;;;;-2.01;100.00;102686.66;5098929;27;20552;-74
2024/01/20 05:28:41;;;;;;;145.40;41.60;;;;;;;-1.94;100.00;102692.03;5098141;27;20117;-73
2024/01/20 05:31:06;;;;;;;139.95;43.55;;;;;;;-1.93;100.00;102692.91;5095139;27;20366;-73
2024/01/20 05:33:32;;;;;;;134.00;40.70;;;;;;;-1.87;100.00;102696.50;5091583;27;20893;-74
2024/01/20 05:35:58;;;;;;;132.85;40.42;;;;;;;-2.00;100.00;102702.38;5098360;27;20036;-73
2024/01/20 05:38:23;;;;;;;134.57;40.05;;;;;;;-1.92;100.00;102702.50;5081923;27;20078;-74
2024/01/20 05:40:48;;;;;;;121.57;40.55;;;;;;;-1.98;100.00;102712.84;5072890;27;20853;-74
2024/01/20 05:43:14;;;;;;;125.70;41.10;;;;;;;-2.04;100.00;102718.84;5100181;27;20044;-73
2024/01/20 05:45:39;;;;;;;129.88;40.22;;;;;;;-2.06;100.00;102715.31;5077922;27;20032;-74
2024/01/20 05:48:05;;;;;;;121.93;39.42;;;;;;;-1.95;100.00;102721.66;5097852;27;20034;-74
2024/01/20 05:50:30;;;;;;;123.63;39.10;;;;;;;-1.92;100.00;102715.56;5067290;28;20036;-74
2024/01/20 05:52:56;;;;;;;114.22;39.10;;;;;;;-1.93;100.00;102708.59;5093428;27;20054;-73
2024/01/20 05:55:22;;;;;;;129.32;39.03;;;;;;;-2.05;100.00;102709.25;5081371;27;20036;-74
2024/01/20 05:57:47;;;;;;;123.03;40.28;;;;;;;-2.04;100.00;102717.97;5102664;27;20037;-73
2024/01/20 06:00:13;;;;;;;133.25;38.35;;;;;;;-2.04;100.00;102712.75;5092110;27;20123;-74
2024/01/20 06:02:39;;;;;;;119.80;39.90;;;;;;;-1.96;100.00;102706.81;5095951;27;20047;-73
2024/01/20 06:05:04;;;;;;;121.15;38.75;;;;;;;-1.94;100.00;102704.22;5094817;27;20034;-73
2024/01/20 06:07:30;;;;;;;124.28;40.10;;;;;;;-2.01;100.00;102713.66;5092615;27;20507;-74
2024/01/20 06:09:56;;;;;;;122.75;40.55;;;;;;;-2.00;100.00;102715.47;5077817;27;20089;-74
2024/01/20 06:12:21;;;;;;;126.25;39.53;;;;;;;-2.04;100.00;102725.81;5098106;27;20507;-74
2024/01/20 06:14:46;;;;;;;126.20;40.03;;;;;;;-1.93;100.00;102725.16;5099586;27;20032;-74
2024/01/20 06:17:12;;;;;;;124.15;39.17;;;;;;;-1.98;100.00;102720.69;5098939;27;20043;-74
2024/01/20 06:19:38;;;;;;;126.68;42.00;;;;;;;-1.98;100.00;102718.09;5092682;27;20196;-74
2024/01/20 06:22:03;;;;;;;120.28;39.85;;;;;;;-1.94;100.00;102731.25;5091171;27;20036;-74
2024/01/20 06:24:30;;;;;;;108.47;38.38;;;;;;;-1.91;100.00;102725.19;5101150;27;20028;-73
2024/01/20 06:26:55;;;;;;;121.57;41.05;;;;;;;-1.85;100.00;102730.53;5083465;27;20032;-74
2024/01/20 06:29:21;;;;;;;125.80;38.22;;;;;;;-1.94;100.00;102727.75;5070300;27;20032;-74
2024/01/20 06:31:46;;;;;;;120.07;39.83;;;;;;;-1.86;100.00;102731.38;5093958;27;20473;-73
2024/01/20 06:34:12;;;;;;;123.15;38.88;;;;;;;-1.89;100.00;102731.34;5090269;27;20766;-74
2024/01/20 06:36:37;;;;;;;120.03;39.15;;;;;;;-1.85;100.00;102730.53;5074888;28;20036;-74
2024/01/20 06:39:02;;;;;;;131.60;40.22;;;;;;;-1.88;100.00;102727.84;5094536;27;20037;-74
2024/01/20 06:41:28;;;;;;;133.77;40.60;;;;;;;-1.99;100.00;102734.63;5104378;27;20160;-75
2024/01/20 06:43:53;;;;;;;113.38;37.47;;;;;;;-1.90;100.00;102733.06;5103164;27;20031;-74
2024/01/20 06:46:19;;;;;;;121.90;38.67;;;;;;;-1.85;100.00;102738.38;5094856;27;20044;-74
2024/01/20 06:48:44;;;;;;;125.68;39.85;;;;;;;-1.84;100.00;102746.25;5097398;27;20876;-73
2024/01/20 06:51:14;;;;;;;112.72;37.63;;;;;;;-1.84;100.00;102746.25;5101059;27;20135;-74
2024/01/20 06:53:40;;;;;;;134.00;41.38;;;;;;;-1.77;100.00;102735.91;5073660;27;21085;-75
2024/01/20 06:56:06;;;;;;;119.55;39.58;;;;;;;-1.77;100.00;102736.78;5065400;27;20044;-73
2024/01/20 06:58:32;;;;;;;130.40;40.58;;;;;;;-1.72;100.00;102734.25;5098152;27;20512;-73
2024/01/20 07:00:57;;;;;;;114.75;38.03;;;;;;;-1.75;100.00;102737.69;5094492;27;20393;-74
2024/01/20 07:03:23;;;;;;;123.82;41.47;;;;;;;-1.71;100.00;102739.50;5098322;27;20085;-74
2024/01/20 07:05:48;;;;;;;124.30;40.50;;;;;;;-1.78;100.00;102752.44;5075284;28;20870;-73
2024/01/20 07:08:14;;;;;;;114.63;40.45;;;;;;;-1.78;100.00;102755.94;5054117;27;20040;-73
2024/01/20 07:10:39;;;;;;;123.32;40.60;;;;;;;-1.77;100.00;102748.97;5095841;27;20454;-74
2024/01/20 07:13:05;;;;;;;129.50;37.85;;;;;;;-1.68;100.00;102751.75;5074201;27;20028;-74
2024/01/20 07:15:30;;;;;;;131.68;42.03;;;;;;;-1.65;100.00;102752.69;5095618;27;20378;-73
2024/01/20 07:17:56;;;;;;;124.63;38.80;;;;;;;-1.56;100.00;102746.72;5098807;27;20106;-73
2024/01/20 07:20:23;;;;;;;131.98;40.90;;;;;;;-1.49;100.00;102755.59;5100533;27;20036;-74
2024/01/20 07:22:49;;;;;;;116.38;38.70;;;;;;;-1.46;100.00;102743.41;5097823;27;20035;-74
2024/01/20 07:25:16;;;;;;;119.75;39.00;;;;;;;-1.43;100.00;102758.28;5091807;27;20077;-74
2024/01/20 07:27:41;;;;;;;110.72;35.95;;;;;;;-1.46;100.00;102751.25;5068166;27;20073;-74
2024/01/20 07:30:08;;;;;;;120.03;39.20;;;;;;;-1.49;100.00;102756.47;5095921;27;20035;-74
2024/01/20 07:32:34;;;;;;;125.35;38.40;;;;;;;-1.51;100.00;102752.91;5075363;27;20036;-73
2024/01/20 07:34:59;;;;;;;119.40;37.50;;;;;;;-1.48;100.00;102765.19;5097137;27;20036;-73
2024/01/20 07:37:25;;;;;;;113.30;38.15;;;;;;;-1.50;100.00;102773.00;5072975;27;20077;-74
2024/01/20 07:39:50;;;;;;;126.65;39.88;;;;;;;-1.48;100.00;102770.41;5095652;27;20028;-74
2024/01/20 07:42:16;;;;;;;134.20;40.50;;;;;;;-1.60;100.00;102776.31;5094695;27;20712;-74
2024/01/20 07:44:41;;;;;;;121.32;41.00;;;;;;;-1.54;100.00;102776.41;5073531;28;20044;-73
2024/01/20 07:47:06;;;;;;;124.93;39.25;;;;;;;-1.51;100.00;102779.06;5088634;27;20075;-74
2024/01/20 07:49:32;;;;;;;122.45;39.38;;;;;;;-1.49;100.00;102782.63;5098334;27;20028;-74
2024/01/20 07:51:57;;;;;;;127.93;38.92;;;;;;;-1.47;100.00;102777.41;5092055;27;20031;-75
2024/01/20 07:54:23;;;;;;;116.15;40.85;;;;;;;-1.49;100.00;102779.13;5086968;27;20032;-72
2024/01/20 07:56:48;;;;;;;127.45;40.65;;;;;;;-1.57;100.00;102774.63;5088212;27;20056;-73
2024/01/20 07:59:16;;;;;;;116.10;38.50;;;;;;;-1.47;100.00;102778.28;5097450;27;20059;-72
2024/01/20 08:01:42;;;;;;;117.30;41.03;;;;;;;-1.45;100.00;102776.59;5091461;27;20100;-72
2024/01/20 08:04:07;;;;;;;123.72;41.88;;;;;;;-1.43;100.00;102769.63;5085622;27;20040;-72
2024/01/20 08:06:36;;;;;;;116.93;38.72;;;;;;;-1.27;100.00;102777.75;5071113;27;20040;-73
2024/01/20 08:09:01;;;;;;;113.85;39.97;;;;;;;-1.21;100.00;102778.72;5069198;27;20043;-72
2024/01/20 08:11:27;;;;;;;111.40;39.08;;;;;;;-1.22;100.00;102781.31;5073273;27;20038;-72
2024/01/20 08:13:52;;;;;;;104.53;36.58;;;;;;;-1.16;100.00;102784.03;5089392;27;20032;-73
2024/01/20 08:16:18;;;;;;;110.57;37.95;;;;;;;-0.98;100.00;102793.94;5093027;27;20109;-72
2024/01/20 08:18:43;;;;;;;118.30;39.92;;;;;;;-1.00;100.00;102793.91;5071568;27;20040;-72
2024/01/20 08:21:09;;;;;;;107.97;38.38;;;;;;;-0.90;100.00;102790.59;5087631;27;20955;-73
2024/01/20 08:23:34;;;;;;;113.07;40.22;;;;;;;-0.79;100.00;102791.63;5083226;27;20046;-72
2024/01/20 08:26:00;;;;;;;113.75;42.95;;;;;;;-0.64;100.00;102797.94;5090511;27;20160;-73
2024/01/20 08:28:26;;;;;;;115.63;43.80;;;;;;;-0.53;100.00;102793.72;5072472;27;20089;-71
2024/01/20 08:30:52;;;;;;;115.72;40.42;;;;;;;-0.56;100.00;102789.31;5087100;27;20199;-75
2024/01/20 08:33:17;;;;;;;119.63;41.08;;;;;;;-0.45;100.00;102792.09;5093059;27;20057;-72
2024/01/20 08:35:43;;;;;;;108.70;41.45;;;;;;;-0.43;100.00;102786.88;5090651;27;20155;-73
2024/01/20 08:38:08;;;;;;;101.28;37.75;;;;;;;-0.24;100.00;102790.63;5089898;27;20045;-74
2024/01/20 08:40:34;;;;;;;93.35;36.08;;;;;;;-0.17;100.00;102789.81;5091731;27;20042;-74
2024/01/20 08:42:59;;;;;;;103.28;38.65;;;;;;;0.11;100.00;102783.19;5080683;27;20144;-74
2024/01/20 08:45:25;;;;;;;104.00;36.42;;;;;;;0.29;100.00;102778.09;5094009;27;20039;-74
2024/01/20 08:47:50;;;;;;;99.13;38.05;;;;;;;0.34;100.00;102779.03;5091205;27;20032;-74
2024/01/20 08:50:16;;;;;;;106.90;39.95;;;;;;;0.36;100.00;102760.69;5085136;27;20074;-74
2024/01/20 08:52:41;;;;;;;105.32;41.10;;;;;;;0.37;100.00;102771.22;5090038;27;20028;-75
2024/01/20 08:55:07;;;;;;;106.47;41.38;;;;;;;0.49;100.00;102766.06;5069923;28;20177;-74
2024/01/20 08:57:33;;;;;;;118.43;41.00;;;;;;;0.59;100.00;102764.41;5087386;27;20105;-74
2024/01/20 08:59:59;;;;;;;119.93;43.33;;;;;;;0.56;100.00;102764.41;5090449;27;20094;-74
2024/01/20 09:02:24;;;;;;;100.63;37.45;;;;;;;0.46;100.00;102766.06;5068017;27;20214;-73
2024/01/20 09:04:50;;;;;;;103.65;43.90;;;;;;;0.66;100.00;102773.22;5087370;27;20140;-74
2024/01/20 09:07:15;;;;;;;97.30;39.00;;;;;;;0.66;100.00;102778.47;5089131;27;20862;-74
2024/01/20 09:09:41;;;;;;;85.72;36.35;;;;;;;0.49;100.00;102791.44;5093995;27;20032;-73
2024/01/20 09:12:07;;;;;;;98.50;36.10;;;;;;;0.48;100.00;102795.81;5074288;27;20097;-74
2024/01/20 09:14:33;;;;;;;101.47;37.10;;;;;;;0.78;100.00;102799.56;5072751;27;20630;-73
2024/01/20 09:16:58;;;;;;;90.10;34.50;;;;;;;0.64;100.00;102796.81;5088210;27;20043;-74
2024/01/20 09:19:24;;;;;;;93.63;38.33;;;;;;;0.96;100.00;102799.75;5087355;27;20066;-74
2024/01/20 09:21:49;;;;;;;96.57;36.58;;;;;;;0.73;100.00;102802.16;5086237;27;20087;-73
2024/01/20 09:24:15;;;;;;;91.28;36.47;;;;;;;0.85;100.00;102804.00;5087316;27;20118;-72
2024/01/20 09:26:40;;;;;;;89.45;36.30;;;;;;;0.80;100.00;102807.47;5095735;27;20801;-72
2024/01/20 09:29:08;;;;;;;88.10;35.60;;;;;;;0.72;100.00;102813.53;5088854;27;20043;-72
2024/01/20 09:31:34;;;;;;;91.95;35.97;;;;;;;0.70;100.00;102825.78;5076300;27;20090;-73
2024/01/20 09:33:59;;;;;;;88.45;33.92;;;;;;;0.77;100.00;102809.22;5091259;27;20032;-73
2024/01/20 09:36:25;;;;;;;84.88;33.55;;;;;;;0.76;100.00;102820.56;5042616;27;20027;-72
2024/01/20 09:38:50;;;;;;;78.10;31.38;;;;;;;0.91;100.00;102818.97;5061281;28;20043;-73
2024/01/20 09:41:16;;;;;;;89.07;34.58;;;;;;;0.81;100.00;102817.13;5090215;27;20055;-73
2024/01/20 09:43:42;;;;;;;82.45;34.03;;;;;;;0.76;100.00;102815.34;5072587;28;20033;-73
2024/01/20 09:46:09;;;;;;;75.00;30.90;;;;;;;0.80;100.00;102825.84;5064715;27;20036;-73
2024/01/20 09:48:50;;;;;;;87.30;32.08;;;;;;;0.63;100.00;102826.56;5088019;27;20118;-73
2024/01/20 09:51:28;;;;;;;89.43;34.03;;;;;;;0.68;100.00;102824.88;5073914;27;20081;-73
2024/01/20 09:54:00;;;;;;;81.18;30.50;;;;;;;0.80;100.00;102831.09;5091092;27;20028;-72
2024/01/20 09:56:29;;;;;;;84.90;30.63;;;;;;;0.83;100.00;102818.88;5090940;27;20047;-73
2024/01/20 09:59:00;;;;;;;77.47;31.50;;;;;;;0.89;100.00;102818.94;5081167;27;20089;-73
2024/01/20 10:01:27;;;;;;;86.88;32.67;;;;;;;0.80;100.00;102816.22;5088358;27;20109;-72
2024/01/20 10:03:58;;;;;;;73.10;30.73;;;;;;;1.09;100.00;102826.09;5070993;27;20024;-72
2024/01/20 10:06:24;;;;;;;78.43;29.80;;;;;;;1.24;100.00;102820.94;5094092;27;20027;-73
2024/01/20 10:08:50;;;;;;;79.15;31.40;;;;;;;1.16;100.00;102825.28;5089375;27;20064;-73
2024/01/20 10:11:15;;;;;;;83.55;31.58;;;;;;;1.09;100.00;102824.34;5089655;27;20059;-73
2024/01/20 10:13:41;;;;;;;88.32;33.33;;;;;;;1.04;100.00;102826.06;5072123;27;20036;-72
2024/01/20 10:16:07;;;;;;;80.22;31.65;;;;;;;1.20;100.00;102827.91;5086281;27;20028;-73
2024/01/20 10:18:33;;;;;;;80.03;31.15;;;;;;;1.19;100.00;102828.78;5079751;27;20091;-73
2024/01/20 10:21:03;;;;;;;76.57;30.95;;;;;;;1.28;100.00;102828.88;5090097;27;20053;-73
2024/01/20 10:23:29;;;;;;;77.63;32.30;;;;;;;1.11;100.00;102830.50;5071992;27;20051;-73
2024/01/20 10:26:06;;;;;;;76.72;31.25;;;;;;;1.21;100.00;102828.84;5089101;27;20027;-73
2024/01/20 10:28:32;;;;;;;75.03;31.70;;;;;;;1.23;100.00;102835.84;5087955;27;20048;-72
2024/01/20 10:30:58;;;;;;;71.85;28.10;;;;;;;1.30;100.00;102831.50;5072301;27;20036;-72
2024/01/20 10:33:24;;;;;;;75.57;30.70;;;;;;;1.53;100.00;102835.16;5093124;27;20031;-73
2024/01/20 10:35:51;;;;;;;75.90;31.48;;;;;;;1.80;100.00;102834.44;5093679;27;20040;-73
2024/01/20 10:38:21;;;;;;;69.65;30.30;;;;;;;1.84;100.00;102835.34;5078224;27;20040;-73
2024/01/20 10:40:57;;;;;;;69.47;29.58;;;;;;;1.52;100.00;102841.31;5071821;27;20492;-72
2024/01/20 10:43:27;;;;;;;73.43;30.10;;;;;;;1.32;100.00;102829.78;5073252;27;20044;-74
2024/01/20 10:46:17;;;;;;;69.60;29.25;;;;;;;1.38;100.00;102824.56;5092448;27;20086;-73
2024/01/20 10:48:50;;;;;;;72.88;30.20;;;;;;;1.33;100.00;102831.53;5094775;27;20059;-74
2024/01/20 10:51:22;;;;;;;80.78;29.23;;;;;;;1.47;100.00;102829.00;5098902;27;20075;-73